Weather reports worldwide

Advertisment
Trento, Italy (16023): temperature & dewpoint: 26.09.2020 00:00:00 - 02.10.2020 00:00:00 (CEST)Trento, Italy (16023): wind speed: 26.09.2020 00:00:00 - 02.10.2020 00:00:00 (CEST)Trento, Italy (16023): wind direction: 26.09.2020 00:00:00 - 02.10.2020 00:00:00 (CEST)Trento, Italy (16023): reduced air pressure: 26.09.2020 00:00:00 - 02.10.2020 00:00:00 (CEST)Trento, Italy (16023): precipitation: 26.09.2020 00:00:00 - 02.10.2020 00:00:00 (CEST)
Date & Time tt [°C] td [°C] ff [km/h] ff [kn] dd ppp [hPa] rr [mm]
02.10.2020 00:00:00 - - - - - - -
01.10.2020 23:00:00 17,3 10,8 11 6 ESE 1006,5 -
01.10.2020 22:00:00 18,0 11,5 0 0 N 1006,4 -
01.10.2020 21:00:00 17,8 12,0 0 0 N 1006,1 -
01.10.2020 20:00:00 18,5 12,0 0 0 N 1005,8 0,0
01.10.2020 19:00:00 19,0 11,7 0 0 N 1005,4 -
01.10.2020 18:00:00 19,6 11,8 13 7 SW 1005,3 -
01.10.2020 17:00:00 20,5 11,9 15 8 NW 1005,2 -
01.10.2020 16:00:00 20,4 11,3 0 0 N 1005,7 -
01.10.2020 15:00:00 19,7 11,7 0 0 N 1006,4 -
01.10.2020 14:00:00 18,7 11,0 0 0 N 1007,3 0,0
01.10.2020 13:00:00 - - - - - - -
01.10.2020 12:00:00 16,8 9,7 0 0 N 1009,0 -
01.10.2020 11:00:00 16,3 10,3 0 0 N 1009,4 -
01.10.2020 10:00:00 14,6 8,9 0 0 N 1010,0 -
01.10.2020 09:00:00 14,1 8,7 0 0 N 1010,3 -
01.10.2020 08:00:00 13,8 9,2 0 0 N 1010,4 0,0
01.10.2020 07:00:00 13,8 9,6 0 0 N 1010,4 -
01.10.2020 06:00:00 13,5 9,9 0 0 N 1010,7 -
01.10.2020 05:00:00 13,7 9,7 0 0 N 1010,9 -
01.10.2020 04:00:00 13,6 10,4 0 0 N 1011,5 -
01.10.2020 03:00:00 13,4 11,4 0 0 N 1012,1 -
01.10.2020 02:00:00 13,1 11,3 0 0 N 1012,6 0,0
01.10.2020 01:00:00 12,4 10,4 0 0 N 1013,2 -
01.10.2020 00:00:00 11,9 9,8 0 0 N 1013,4 -
30.09.2020 23:00:00 12,3 9,6 0 0 N 1013,3 -
30.09.2020 22:00:00 13,0 9,6 0 0 N 1013,0 -
30.09.2020 21:00:00 14,3 10,1 0 0 N 1012,7 -
30.09.2020 20:00:00 15,9 10,0 0 0 N 1012,3 0,0
30.09.2020 19:00:00 18,3 10,6 0 0 N 1011,8 -
30.09.2020 18:00:00 20,0 10,1 4 2 W 1011,4 -
30.09.2020 17:00:00 22,2 10,6 8 4 WNW 1011,1 -
30.09.2020 16:00:00 22,3 10,7 16 9 SSW 1011,6 -
30.09.2020 15:00:00 20,9 8,1 4 2 ENE 1012,6 -
30.09.2020 14:00:00 20,4 8,0 4 2 SW 1013,9 0,0
30.09.2020 13:00:00 18,1 8,9 5 3 NNW 1015,1 -
30.09.2020 12:00:00 16,0 8,2 0 0 N 1015,9 -
30.09.2020 11:00:00 14,7 8,8 5 3 NNW 1017,0 -
30.09.2020 10:00:00 11,2 7,3 0 0 N 1018,2 -
30.09.2020 09:00:00 9,2 8,3 0 0 N 1018,7 -
30.09.2020 08:00:00 7,6 6,0 0 0 N 1018,8 0,0
30.09.2020 07:00:00 7,6 6,0 0 0 N 1018,5 -
30.09.2020 06:00:00 7,9 6,3 0 0 N 1018,6 -
30.09.2020 05:00:00 8,2 6,6 0 0 N 1018,6 -
30.09.2020 04:00:00 8,5 6,8 0 0 N 1018,9 -
30.09.2020 03:00:00 8,8 7,2 0 0 N 1018,8 -
30.09.2020 02:00:00 9,0 7,3 0 0 N 1018,7 0,0
30.09.2020 01:00:00 9,2 7,0 0 0 N 1018,8 -
30.09.2020 00:00:00 10,1 7,7 0 0 N 1018,8 -
29.09.2020 23:00:00 10,5 7,7 0 0 N 1018,7 -
29.09.2020 22:00:00 11,2 8,0 0 0 N 1018,4 -
29.09.2020 21:00:00 12,2 8,2 0 0 N 1017,8 -
29.09.2020 20:00:00 13,5 8,3 0 0 N 1017,0 0,0
29.09.2020 19:00:00 15,7 8,4 0 0 N 1016,1 -
29.09.2020 18:00:00 18,3 6,4 0 0 N 1015,4 -
29.09.2020 17:00:00 20,7 5,4 0 0 N 1014,8 -
29.09.2020 16:00:00 21,1 3,2 0 0 N 1015,1 -
29.09.2020 15:00:00 21,0 5,7 0 0 N 1015,6 -
29.09.2020 14:00:00 19,2 5,2 0 0 N 1016,4 0,0
29.09.2020 13:00:00 17,9 5,7 0 0 N 1017,2 -
29.09.2020 12:00:00 15,4 4,9 0 0 N 1017,8 -
29.09.2020 11:00:00 13,0 5,1 0 0 N 1018,5 -
29.09.2020 10:00:00 11,4 6,5 0 0 N 1018,6 -
29.09.2020 09:00:00 8,3 7,2 0 0 N 1018,5 -
29.09.2020 08:00:00 6,7 5,6 0 0 N 1018,2 0,0
29.09.2020 07:00:00 6,4 5,0 0 0 N 1017,5 -
29.09.2020 06:00:00 6,4 4,9 0 0 N 1016,9 -
29.09.2020 05:00:00 6,8 5,3 0 0 N 1016,6 -
29.09.2020 04:00:00 7,4 6,0 0 0 N 1016,1 -
29.09.2020 03:00:00 7,4 5,2 0 0 N 1015,8 -
29.09.2020 02:00:00 8,1 5,7 0 0 N 1015,6 0,0
29.09.2020 01:00:00 8,7 5,8 0 0 N 1015,1 -
29.09.2020 00:00:00 9,8 6,5 0 0 N 1014,5 -
28.09.2020 23:00:00 11,1 7,2 0 0 N 1013,5 -
28.09.2020 22:00:00 12,0 8,0 0 0 N 1012,6 -
28.09.2020 21:00:00 13,1 8,1 0 0 N 1011,8 -
28.09.2020 20:00:00 13,9 7,6 0 0 N 1010,9 0,0
28.09.2020 19:00:00 15,1 7,1 0 0 N 1009,4 -
28.09.2020 18:00:00 16,3 6,1 0 0 N 1008,4 -
28.09.2020 17:00:00 16,6 6,3 0 0 N 1007,9 -
28.09.2020 16:00:00 17,2 6,6 0 0 N 1007,5 -
28.09.2020 15:00:00 16,0 8,9 0 0 N 1007,5 -
28.09.2020 14:00:00 14,1 7,8 0 0 N 1007,7 0,0
28.09.2020 13:00:00 14,1 8,4 0 0 N 1007,8 -
28.09.2020 12:00:00 12,8 8,2 0 0 N 1007,5 -
28.09.2020 11:00:00 11,5 7,6 0 0 N 1006,9 -
28.09.2020 10:00:00 10,6 7,8 0 0 N 1006,5 -
28.09.2020 09:00:00 9,9 7,8 0 0 N 1005,7 -
28.09.2020 08:00:00 9,5 7,2 0 0 N 1005,3 0,0
28.09.2020 07:00:00 9,4 7,3 0 0 N 1004,5 -
28.09.2020 06:00:00 9,4 7,5 0 0 N 1004,4 -
28.09.2020 05:00:00 9,3 7,4 0 0 N 1004,5 -
28.09.2020 04:00:00 9,1 7,4 0 0 N 1005,2 -
28.09.2020 03:00:00 8,6 6,9 0 0 N 1005,7 -
28.09.2020 02:00:00 8,3 6,2 0 0 N 1005,9 0,0
28.09.2020 01:00:00 8,4 6,2 0 0 N 1005,7 -
28.09.2020 00:00:00 9,2 6,3 0 0 N 1006,0 -
27.09.2020 23:00:00 9,5 6,2 0 0 N 1006,7 -
27.09.2020 22:00:00 10,5 6,6 0 0 N 1006,6 -
27.09.2020 21:00:00 11,4 6,5 0 0 N 1006,7 -
27.09.2020 20:00:00 12,7 6,7 0 0 N 1006,7 -
27.09.2020 19:00:00 13,6 6,4 0 0 N 1006,2 -
27.09.2020 18:00:00 14,1 5,1 18 10 S 1006,0 -
27.09.2020 17:00:00 15,3 4,3 21 11 S 1005,6 -
27.09.2020 16:00:00 17,3 6,1 0 0 N 1005,2 -
27.09.2020 15:00:00 15,9 8,6 16 9 SSW 1005,8 -
27.09.2020 14:00:00 13,1 6,8 8 4 SSE 1006,7 0,0
27.09.2020 13:00:00 13,5 4,8 0 0 N 1007,0 -
27.09.2020 12:00:00 12,8 3,6 11 6 N 1007,2 -
27.09.2020 11:00:00 11,1 3,3 0 0 N 1007,7 -
27.09.2020 10:00:00 8,9 4,1 0 0 N 1007,7 -
27.09.2020 09:00:00 7,9 3,7 0 0 N 1007,3 -
27.09.2020 08:00:00 7,7 3,1 0 0 N 1006,3 0,0
27.09.2020 07:00:00 7,9 3,5 0 0 N 1005,4 -
27.09.2020 06:00:00 8,6 3,8 5 3 ENE 1005,4 -
27.09.2020 05:00:00 7,7 4,4 0 0 N 1005,0 -
27.09.2020 04:00:00 7,9 4,6 0 0 N 1004,7 -
27.09.2020 03:00:00 8,4 3,6 0 0 N 1004,5 -
27.09.2020 02:00:00 9,4 3,5 0 0 N 1003,6 0,0
27.09.2020 01:00:00 9,8 3,9 0 0 N 1003,0 -
27.09.2020 00:00:00 10,4 4,7 0 0 N 1002,4 -
26.09.2020 23:00:00 9,8 4,1 0 0 N 1001,9 -
26.09.2020 22:00:00 10,7 5,6 0 0 N 1001,6 -
26.09.2020 21:00:00 11,5 5,3 0 0 N 1001,1 -
26.09.2020 20:00:00 12,8 5,2 0 0 N 1000,4 0,0
26.09.2020 19:00:00 14,1 3,5 0 0 N 999,4 -
26.09.2020 18:00:00 16,4 3,7 0 0 N 998,8 -
26.09.2020 17:00:00 17,8 0,8 0 0 N 998,3 -
26.09.2020 16:00:00 18,7 0,2 16 9 N 997,9 -
26.09.2020 15:00:00 19,5 0,9 5 3 NW 997,4 -
26.09.2020 14:00:00 19,1 2,8 0 0 N 997,5 0,0
26.09.2020 13:00:00 17,7 3,5 5 3 ENE 997,7 -
26.09.2020 12:00:00 16,0 5,2 0 0 N 997,9 -
26.09.2020 11:00:00 12,6 5,2 0 0 N 997,9 -
26.09.2020 10:00:00 12,5 6,0 0 0 N 997,4 -
26.09.2020 09:00:00 9,6 6,3 0 0 N 997,2 -
26.09.2020 08:00:00 9,0 4,0 4 2 SSE 997,1 0,0
26.09.2020 07:00:00 10,0 2,7 11 6 ENE 996,4 -
26.09.2020 06:00:00 10,9 2,6 11 6 ENE 996,1 -
26.09.2020 05:00:00 10,8 3,5 16 9 ENE 995,6 -
26.09.2020 04:00:00 10,8 2,8 18 10 ENE 995,0 -
26.09.2020 03:00:00 11,0 3,0 15 8 ENE 995,3 -
26.09.2020 02:00:00 11,3 2,8 4 2 E 995,3 0,0
26.09.2020 01:00:00 11,2 3,2 15 8 NE 995,3 -
26.09.2020 00:00:00 11,1 3,8 9 5 NNW 996,0 -

tt = temperature
td = dewpoint
ff = wind speed
dd = wind direction
ppp = reduced air pressure
rr = precipitation

Next stations